sensor_id;sensor_type;location;lat;lon;timestamp;pressure;altitude;pressure_sealevel;temperature;humidity
23589;BME280;11972;48.078;11.876;2023-05-21T00:03:35;95009.41;;;12.91;100.00
23589;BME280;11972;48.078;11.876;2023-05-21T00:07:36;95005.97;;;12.84;100.00
23589;BME280;11972;48.078;11.876;2023-05-21T00:11:36;95005.97;;;12.77;100.00
23589;BME280;11972;48.078;11.876;2023-05-21T00:15:37;94997.03;;;12.72;100.00
23589;BME280;11972;48.078;11.876;2023-05-21T00:19:37;94997.22;;;12.70;100.00
23589;BME280;11972;48.078;11.876;2023-05-21T00:23:38;94994.16;;;12.73;100.00
23589;BME280;11972;48.078;11.876;2023-05-21T00:27:41;94983.16;;;12.76;100.00
23589;BME280;11972;48.078;11.876;2023-05-21T00:31:42;94982.72;;;12.79;100.00
23589;BME280;11972;48.078;11.876;2023-05-21T00:35:42;94977.81;;;12.83;100.00
23589;BME280;11972;48.078;11.876;2023-05-21T00:39:42;94973.56;;;12.82;100.00
23589;BME280;11972;48.078;11.876;2023-05-21T00:43:43;94976.84;;;12.77;100.00
23589;BME280;11972;48.078;11.876;2023-05-21T00:47:45;94970.13;;;12.68;100.00
23589;BME280;11972;48.078;11.876;2023-05-21T00:51:47;94970.38;;;12.60;100.00
23589;BME280;11972;48.078;11.876;2023-05-21T00:55:49;94967.72;;;12.53;100.00
23589;BME280;11972;48.078;11.876;2023-05-21T00:59:51;94971.00;;;12.49;100.00
23589;BME280;11972;48.078;11.876;2023-05-21T01:03:53;94964.09;;;12.48;100.00
23589;BME280;11972;48.078;11.876;2023-05-21T01:07:57;94964.09;;;12.48;100.00
23589;BME280;11972;48.078;11.876;2023-05-21T01:11:58;94967.31;;;12.50;100.00
23589;BME280;11972;48.078;11.876;2023-05-21T01:16:00;94969.78;;;12.51;100.00
23589;BME280;11972;48.078;11.876;2023-05-21T01:20:01;94963.06;;;12.49;100.00
23589;BME280;11972;48.078;11.876;2023-05-21T01:24:09;94959.19;;;12.45;100.00
23589;BME280;11972;48.078;11.876;2023-05-21T01:28:09;94958.56;;;12.42;100.00
23589;BME280;11972;48.078;11.876;2023-05-21T01:36:25;94964.25;;;12.46;100.00
23589;BME280;11972;48.078;11.876;2023-05-21T01:40:33;94951.06;;;12.39;100.00
23589;BME280;11972;48.078;11.876;2023-05-21T01:44:35;94947.00;;;12.30;100.00
23589;BME280;11972;48.078;11.876;2023-05-21T01:48:37;94947.81;;;12.24;100.00
23589;BME280;11972;48.078;11.876;2023-05-21T01:52:37;94948.66;;;12.18;100.00
23589;BME280;11972;48.078;11.876;2023-05-21T01:56:38;94943.34;;;12.11;100.00
23589;BME280;11972;48.078;11.876;2023-05-21T02:00:38;94945.41;;;12.03;100.00
23589;BME280;11972;48.078;11.876;2023-05-21T02:04:39;94945.00;;;11.92;100.00
23589;BME280;11972;48.078;11.876;2023-05-21T02:08:43;94946.41;;;11.82;100.00
23589;BME280;11972;48.078;11.876;2023-05-21T02:12:44;94943.34;;;11.72;100.00
23589;BME280;11972;48.078;11.876;2023-05-21T02:16:45;94949.44;;;11.65;100.00
23589;BME280;11972;48.078;11.876;2023-05-21T02:20:46;94949.03;;;11.62;100.00
23589;BME280;11972;48.078;11.876;2023-05-21T02:24:46;94949.44;;;11.59;100.00
23589;BME280;11972;48.078;11.876;2023-05-21T02:28:46;94944.97;;;11.53;100.00
23589;BME280;11972;48.078;11.876;2023-05-21T02:32:47;94936.22;;;11.59;100.00
23589;BME280;11972;48.078;11.876;2023-05-21T02:36:49;94943.13;;;11.60;100.00
23589;BME280;11972;48.078;11.876;2023-05-21T02:40:52;94949.03;;;11.55;100.00
23589;BME280;11972;48.078;11.876;2023-05-21T02:44:53;94937.66;;;11.48;100.00
23589;BME280;11972;48.078;11.876;2023-05-21T02:48:53;94942.91;;;11.41;100.00
23589;BME280;11972;48.078;11.876;2023-05-21T02:52:53;94943.13;;;11.40;100.00
23589;BME280;11972;48.078;11.876;2023-05-21T02:56:54;94933.56;;;11.46;100.00
23589;BME280;11972;48.078;11.876;2023-05-21T03:00:55;94932.53;;;11.60;100.00
23589;BME280;11972;48.078;11.876;2023-05-21T03:04:55;94933.97;;;11.76;100.00
23589;BME280;11972;48.078;11.876;2023-05-21T03:08:56;94929.53;;;11.83;100.00
23589;BME280;11972;48.078;11.876;2023-05-21T03:12:56;94935.03;;;11.95;100.00
23589;BME280;11972;48.078;11.876;2023-05-21T03:16:56;94927.47;;;12.05;100.00
23589;BME280;11972;48.078;11.876;2023-05-21T03:20:57;94924.22;;;12.09;100.00
23589;BME280;11972;48.078;11.876;2023-05-21T03:24:58;94918.53;;;12.06;100.00
23589;BME280;11972;48.078;11.876;2023-05-21T03:28:59;94922.22;;;11.98;100.00
23589;BME280;11972;48.078;11.876;2023-05-21T03:33:00;94918.56;;;11.86;100.00
23589;BME280;11972;48.078;11.876;2023-05-21T03:37:02;94918.50;;;11.79;100.00
23589;BME280;11972;48.078;11.876;2023-05-21T03:41:02;94922.97;;;11.72;100.00
23589;BME280;11972;48.078;11.876;2023-05-21T03:45:03;94925.03;;;11.70;100.00
23589;BME280;11972;48.078;11.876;2023-05-21T03:49:03;94935.81;;;11.68;100.00
23589;BME280;11972;48.078;11.876;2023-05-21T03:53:04;94929.72;;;11.75;100.00
23589;BME280;11972;48.078;11.876;2023-05-21T03:57:04;94926.91;;;11.89;100.00
23589;BME280;11972;48.078;11.876;2023-05-21T04:01:05;94919.97;;;12.02;100.00
23589;BME280;11972;48.078;11.876;2023-05-21T04:05:07;94928.28;;;12.12;100.00
23589;BME280;11972;48.078;11.876;2023-05-21T04:09:08;94934.38;;;12.26;100.00
23589;BME280;11972;48.078;11.876;2023-05-21T04:13:08;94930.69;;;12.40;100.00
23589;BME280;11972;48.078;11.876;2023-05-21T04:17:09;94920.44;;;12.50;100.00
23589;BME280;11972;48.078;11.876;2023-05-21T04:21:11;94929.41;;;12.56;100.00
23589;BME280;11972;48.078;11.876;2023-05-21T04:25:12;94926.94;;;12.61;100.00
23589;BME280;11972;48.078;11.876;2023-05-21T04:29:12;94936.69;;;12.67;100.00
23589;BME280;11972;48.078;11.876;2023-05-21T04:33:13;94941.16;;;12.73;100.00
23589;BME280;11972;48.078;11.876;2023-05-21T04:37:16;94945.22;;;12.82;100.00
23589;BME280;11972;48.078;11.876;2023-05-21T04:41:17;94952.50;;;12.94;100.00
23589;BME280;11972;48.078;11.876;2023-05-21T04:45:18;94941.25;;;13.05;100.00
23589;BME280;11972;48.078;11.876;2023-05-21T04:49:18;94937.72;;;13.18;100.00
23589;BME280;11972;48.078;11.876;2023-05-21T04:53:21;94942.97;;;13.31;100.00
23589;BME280;11972;48.078;11.876;2023-05-21T04:57:21;94947.38;;;13.44;100.00
23589;BME280;11972;48.078;11.876;2023-05-21T05:01:23;94934.03;;;13.57;100.00
23589;BME280;11972;48.078;11.876;2023-05-21T05:05:25;94936.38;;;13.72;100.00
23589;BME280;11972;48.078;11.876;2023-05-21T05:09:26;94940.53;;;13.86;100.00
23589;BME280;11972;48.078;11.876;2023-05-21T05:13:26;94940.47;;;13.99;100.00
23589;BME280;11972;48.078;11.876;2023-05-21T05:17:27;94944.84;;;14.12;100.00
23589;BME280;11972;48.078;11.876;2023-05-21T05:21:27;94937.78;;;14.24;100.00
23589;BME280;11972;48.078;11.876;2023-05-21T05:25:27;94943.53;;;14.39;100.00
23589;BME280;11972;48.078;11.876;2023-05-21T05:29:28;94943.00;;;14.56;100.00
23589;BME280;11972;48.078;11.876;2023-05-21T05:33:28;94938.25;;;14.76;100.00
23589;BME280;11972;48.078;11.876;2023-05-21T05:37:28;94935.16;;;14.98;100.00
23589;BME280;11972;48.078;11.876;2023-05-21T05:41:29;94937.34;;;15.19;100.00
23589;BME280;11972;48.078;11.876;2023-05-21T05:45:29;94933.94;;;15.42;100.00
23589;BME280;11972;48.078;11.876;2023-05-21T05:49:29;94935.28;;;15.63;100.00
23589;BME280;11972;48.078;11.876;2023-05-21T05:53:30;94932.59;;;15.81;100.00
23589;BME280;11972;48.078;11.876;2023-05-21T05:57:31;94937.59;;;16.01;100.00
23589;BME280;11972;48.078;11.876;2023-05-21T06:01:31;94942.13;;;16.24;100.00
23589;BME280;11972;48.078;11.876;2023-05-21T06:05:32;94936.78;;;16.48;100.00
23589;BME280;11972;48.078;11.876;2023-05-21T06:09:32;94941.41;;;16.64;100.00
23589;BME280;11972;48.078;11.876;2023-05-21T06:13:32;94939.09;;;16.79;100.00
23589;BME280;11972;48.078;11.876;2023-05-21T06:17:33;94936.06;;;16.88;100.00
23589;BME280;11972;48.078;11.876;2023-05-21T06:21:33;94942.06;;;16.95;100.00
23589;BME280;11972;48.078;11.876;2023-05-21T06:25:33;94946.13;;;16.97;100.00
23589;BME280;11972;48.078;11.876;2023-05-21T06:29:34;94941.34;;;17.11;100.00
23589;BME280;11972;48.078;11.876;2023-05-21T06:33:34;94946.88;;;17.21;100.00
23589;BME280;11972;48.078;11.876;2023-05-21T06:37:34;94940.13;;;17.30;100.00
23589;BME280;11972;48.078;11.876;2023-05-21T06:41:35;94944.97;;;17.33;100.00
23589;BME280;11972;48.078;11.876;2023-05-21T06:45:35;94945.06;;;17.39;100.00
23589;BME280;11972;48.078;11.876;2023-05-21T06:49:36;94942.28;;;17.45;100.00
23589;BME280;11972;48.078;11.876;2023-05-21T06:53:36;94951.25;;;17.56;100.00
23589;BME280;11972;48.078;11.876;2023-05-21T06:57:37;94957.34;;;17.68;100.00
23589;BME280;11972;48.078;11.876;2023-05-21T07:01:37;94961.13;;;17.84;100.00
23589;BME280;11972;48.078;11.876;2023-05-21T07:05:41;94958.72;;;17.99;100.00
23589;BME280;11972;48.078;11.876;2023-05-21T07:09:41;94951.78;;;18.15;100.00
23589;BME280;11972;48.078;11.876;2023-05-21T07:13:42;94963.25;;;18.32;100.00
23589;BME280;11972;48.078;11.876;2023-05-21T07:17:43;94958.16;;;18.48;100.00
23589;BME280;11972;48.078;11.876;2023-05-21T07:21:43;94956.75;;;18.62;100.00
23589;BME280;11972;48.078;11.876;2023-05-21T07:25:44;94955.63;;;18.75;100.00
23589;BME280;11972;48.078;11.876;2023-05-21T07:29:44;94951.34;;;18.96;100.00
23589;BME280;11972;48.078;11.876;2023-05-21T07:33:45;94950.66;;;19.27;100.00
23589;BME280;11972;48.078;11.876;2023-05-21T07:37:45;94957.06;;;19.48;100.00
23589;BME280;11972;48.078;11.876;2023-05-21T07:41:46;94957.69;;;19.82;100.00
23589;BME280;11972;48.078;11.876;2023-05-21T07:45:47;94952.84;;;20.12;100.00
23589;BME280;11972;48.078;11.876;2023-05-21T07:49:48;94950.44;;;20.47;100.00
23589;BME280;11972;48.078;11.876;2023-05-21T07:53:48;94949.97;;;20.98;100.00
23589;BME280;11972;48.078;11.876;2023-05-21T07:57:48;94940.84;;;21.62;100.00
23589;BME280;11972;48.078;11.876;2023-05-21T08:01:51;94948.72;;;22.29;100.00
23589;BME280;11972;48.078;11.876;2023-05-21T08:05:51;94947.03;;;22.85;100.00
23589;BME280;11972;48.078;11.876;2023-05-21T08:09:52;94948.50;;;23.37;100.00
23589;BME280;11972;48.078;11.876;2023-05-21T08:13:53;94947.53;;;23.72;100.00
23589;BME280;11972;48.078;11.876;2023-05-21T08:17:53;94959.00;;;23.93;100.00
23589;BME280;11972;48.078;11.876;2023-05-21T08:21:54;94954.47;;;24.22;100.00
23589;BME280;11972;48.078;11.876;2023-05-21T08:25:54;94958.28;;;24.56;100.00
23589;BME280;11972;48.078;11.876;2023-05-21T08:29:55;94964.19;;;25.16;100.00
23589;BME280;11972;48.078;11.876;2023-05-21T08:33:55;94953.53;;;25.48;100.00
23589;BME280;11972;48.078;11.876;2023-05-21T08:37:55;94966.13;;;25.58;100.00
23589;BME280;11972;48.078;11.876;2023-05-21T08:42:03;94959.53;;;25.88;100.00
23589;BME280;11972;48.078;11.876;2023-05-21T08:46:08;94964.25;;;26.15;100.00
23589;BME280;11972;48.078;11.876;2023-05-21T08:50:11;94964.63;;;26.46;100.00
23589;BME280;11972;48.078;11.876;2023-05-21T08:54:12;94961.31;;;26.50;100.00
23589;BME280;11972;48.078;11.876;2023-05-21T08:58:13;94972.22;;;26.44;100.00
23589;BME280;11972;48.078;11.876;2023-05-21T09:02:14;94969.88;;;26.38;100.00
23589;BME280;11972;48.078;11.876;2023-05-21T09:06:17;94971.81;;;26.18;100.00
23589;BME280;11972;48.078;11.876;2023-05-21T09:10:22;94974.94;;;25.88;100.00
23589;BME280;11972;48.078;11.876;2023-05-21T09:14:25;94967.81;;;25.73;100.00
23589;BME280;11972;48.078;11.876;2023-05-21T09:18:25;94970.34;;;25.88;100.00
23589;BME280;11972;48.078;11.876;2023-05-21T09:22:28;94973.41;;;25.82;100.00
23589;BME280;11972;48.078;11.876;2023-05-21T09:26:29;94969.69;;;25.54;100.00
23589;BME280;11972;48.078;11.876;2023-05-21T09:30:29;94972.41;;;24.76;100.00
23589;BME280;11972;48.078;11.876;2023-05-21T09:34:30;94978.38;;;24.73;100.00
23589;BME280;11972;48.078;11.876;2023-05-21T09:38:32;94979.38;;;24.54;100.00
23589;BME280;11972;48.078;11.876;2023-05-21T09:42:33;94975.06;;;24.53;100.00
23589;BME280;11972;48.078;11.876;2023-05-21T09:46:38;94972.75;;;24.70;100.00
23589;BME280;11972;48.078;11.876;2023-05-21T09:50:39;94977.66;;;24.92;100.00
23589;BME280;11972;48.078;11.876;2023-05-21T09:54:40;94975.81;;;25.16;100.00
23589;BME280;11972;48.078;11.876;2023-05-21T09:58:40;94971.25;;;25.60;100.00
23589;BME280;11972;48.078;11.876;2023-05-21T10:02:46;94972.91;;;26.17;100.00
23589;BME280;11972;48.078;11.876;2023-05-21T10:06:48;94974.59;;;26.65;99.11
23589;BME280;11972;48.078;11.876;2023-05-21T10:10:49;94962.59;;;27.17;96.49
23589;BME280;11972;48.078;11.876;2023-05-21T10:15:04;94960.66;;;27.32;96.75
23589;BME280;11972;48.078;11.876;2023-05-21T10:19:08;94956.75;;;27.38;92.45
23589;BME280;11972;48.078;11.876;2023-05-21T10:23:12;94950.53;;;27.37;88.24
23589;BME280;11972;48.078;11.876;2023-05-21T10:27:12;94951.31;;;27.52;86.76
23589;BME280;11972;48.078;11.876;2023-05-21T10:31:13;94954.13;;;27.19;86.15
23589;BME280;11972;48.078;11.876;2023-05-21T10:35:17;94965.91;;;27.28;84.33
23589;BME280;11972;48.078;11.876;2023-05-21T10:39:18;94949.91;;;27.54;82.17
23589;BME280;11972;48.078;11.876;2023-05-21T10:48:01;94954.50;;;27.67;82.52
23589;BME280;11972;48.078;11.876;2023-05-21T10:56:24;94947.50;;;27.66;84.98
23589;BME280;11972;48.078;11.876;2023-05-21T11:00:28;94942.75;;;27.86;82.39
23589;BME280;11972;48.078;11.876;2023-05-21T11:04:30;94931.66;;;27.96;79.07
23589;BME280;11972;48.078;11.876;2023-05-21T11:08:31;94935.13;;;28.10;80.82
23589;BME280;11972;48.078;11.876;2023-05-21T11:12:35;94941.84;;;27.90;70.96
23589;BME280;11972;48.078;11.876;2023-05-21T11:16:44;94930.13;;;28.04;74.59
23589;BME280;11972;48.078;11.876;2023-05-21T11:20:49;94922.91;;;28.22;75.29
23589;BME280;11972;48.078;11.876;2023-05-21T11:24:51;94936.25;;;28.32;71.23
23589;BME280;11972;48.078;11.876;2023-05-21T11:41:18;94930.59;;;28.42;61.63
23589;BME280;11972;48.078;11.876;2023-05-21T11:50:34;94932.13;;;28.12;64.71
23589;BME280;11972;48.078;11.876;2023-05-21T11:54:44;94928.94;;;27.96;64.41
23589;BME280;11972;48.078;11.876;2023-05-21T11:58:45;94941.25;;;27.80;61.99
23589;BME280;11972;48.078;11.876;2023-05-21T12:02:50;94934.50;;;27.77;65.16
23589;BME280;11972;48.078;11.876;2023-05-21T12:06:51;94926.78;;;27.84;66.10
23589;BME280;11972;48.078;11.876;2023-05-21T12:10:58;94917.50;;;27.85;60.22
23589;BME280;11972;48.078;11.876;2023-05-21T12:15:00;94918.25;;;27.77;62.81
23589;BME280;11972;48.078;11.876;2023-05-21T12:19:02;94925.56;;;27.77;72.73
23589;BME280;11972;48.078;11.876;2023-05-21T12:23:03;94928.09;;;27.87;70.87
23589;BME280;11972;48.078;11.876;2023-05-21T12:27:05;94924.75;;;27.90;65.12
23589;BME280;11972;48.078;11.876;2023-05-21T12:31:14;94928.69;;;27.56;63.88
23589;BME280;11972;48.078;11.876;2023-05-21T12:35:21;94926.16;;;27.87;66.31
23589;BME280;11972;48.078;11.876;2023-05-21T12:39:21;94929.56;;;27.93;62.20
23589;BME280;11972;48.078;11.876;2023-05-21T12:43:22;94928.38;;;27.85;61.50
23589;BME280;11972;48.078;11.876;2023-05-21T12:47:23;94925.38;;;27.87;62.64
23589;BME280;11972;48.078;11.876;2023-05-21T12:51:25;94919.94;;;27.87;60.19
23589;BME280;11972;48.078;11.876;2023-05-21T12:55:36;94919.88;;;28.01;68.67
23589;BME280;11972;48.078;11.876;2023-05-21T12:59:49;94924.06;;;27.70;63.41
23589;BME280;11972;48.078;11.876;2023-05-21T13:03:50;94916.63;;;28.35;71.85
23589;BME280;11972;48.078;11.876;2023-05-21T13:07:50;94909.94;;;28.86;67.20
23589;BME280;11972;48.078;11.876;2023-05-21T13:11:51;94911.97;;;29.11;68.63
23589;BME280;11972;48.078;11.876;2023-05-21T13:15:51;94914.06;;;29.14;64.48
23589;BME280;11972;48.078;11.876;2023-05-21T13:24:06;94902.47;;;29.40;62.96
23589;BME280;11972;48.078;11.876;2023-05-21T13:28:06;94901.41;;;29.58;57.96
23589;BME280;11972;48.078;11.876;2023-05-21T13:32:09;94908.16;;;29.21;51.68
23589;BME280;11972;48.078;11.876;2023-05-21T13:36:09;94895.50;;;29.82;60.87
23589;BME280;11972;48.078;11.876;2023-05-21T13:40:12;94890.88;;;30.35;53.99
23589;BME280;11972;48.078;11.876;2023-05-21T13:44:15;94892.41;;;30.71;55.69
23589;BME280;11972;48.078;11.876;2023-05-21T13:48:16;94898.50;;;30.68;47.47
23589;BME280;11972;48.078;11.876;2023-05-21T13:52:16;94893.47;;;29.22;42.03
23589;BME280;11972;48.078;11.876;2023-05-21T13:56:17;94892.19;;;29.28;47.25
23589;BME280;11972;48.078;11.876;2023-05-21T14:00:17;94890.84;;;29.08;44.57
23589;BME280;11972;48.078;11.876;2023-05-21T14:04:18;94886.59;;;30.17;51.44
23589;BME280;11972;48.078;11.876;2023-05-21T14:08:20;94885.31;;;31.25;47.31
23589;BME280;11972;48.078;11.876;2023-05-21T14:12:22;94872.72;;;32.13;47.69
23589;BME280;11972;48.078;11.876;2023-05-21T14:16:26;94884.63;;;32.08;38.61
23589;BME280;11972;48.078;11.876;2023-05-21T14:20:26;94872.25;;;32.11;40.30
23589;BME280;11972;48.078;11.876;2023-05-21T14:24:26;94875.41;;;32.34;40.15
23589;BME280;11972;48.078;11.876;2023-05-21T14:28:27;94873.03;;;32.32;36.96
23589;BME280;11972;48.078;11.876;2023-05-21T14:32:27;94872.41;;;30.58;35.63
23589;BME280;11972;48.078;11.876;2023-05-21T14:36:28;94868.50;;;30.85;37.98
23589;BME280;11972;48.078;11.876;2023-05-21T14:40:28;94871.50;;;30.92;38.93
23589;BME280;11972;48.078;11.876;2023-05-21T14:44:29;94858.75;;;31.43;39.28
23589;BME280;11972;48.078;11.876;2023-05-21T14:48:29;94863.25;;;31.69;39.06
23589;BME280;11972;48.078;11.876;2023-05-21T14:52:29;94866.38;;;31.58;36.79
23589;BME280;11972;48.078;11.876;2023-05-21T14:56:30;94853.34;;;30.58;34.83
23589;BME280;11972;48.078;11.876;2023-05-21T15:00:31;94860.28;;;30.38;37.26
23589;BME280;11972;48.078;11.876;2023-05-21T15:04:32;94851.00;;;30.86;38.10
23589;BME280;11972;48.078;11.876;2023-05-21T15:08:32;94857.59;;;30.85;38.69
23589;BME280;11972;48.078;11.876;2023-05-21T15:12:32;94853.81;;;31.87;38.73
23589;BME280;11972;48.078;11.876;2023-05-21T15:16:33;94855.38;;;32.63;38.42
23589;BME280;11972;48.078;11.876;2023-05-21T15:20:33;94858.19;;;32.54;36.39
23589;BME280;11972;48.078;11.876;2023-05-21T15:24:33;94851.03;;;32.29;34.52
23589;BME280;11972;48.078;11.876;2023-05-21T15:28:34;94842.94;;;32.53;35.59
23589;BME280;11972;48.078;11.876;2023-05-21T15:32:34;94840.97;;;33.24;36.16
23589;BME280;11972;48.078;11.876;2023-05-21T15:36:34;94837.91;;;33.38;34.86
23589;BME280;11972;48.078;11.876;2023-05-21T15:40:38;94835.44;;;33.73;34.01
23589;BME280;11972;48.078;11.876;2023-05-21T15:44:40;94828.44;;;34.00;33.34
23589;BME280;11972;48.078;11.876;2023-05-21T15:48:40;94835.16;;;33.90;32.80
23589;BME280;11972;48.078;11.876;2023-05-21T15:52:41;94833.44;;;33.45;30.90
23589;BME280;11972;48.078;11.876;2023-05-21T15:56:43;94828.63;;;32.81;31.27
23589;BME280;11972;48.078;11.876;2023-05-21T16:00:44;94825.75;;;32.53;31.89
23589;BME280;11972;48.078;11.876;2023-05-21T16:04:44;94835.91;;;32.77;33.76
23589;BME280;11972;48.078;11.876;2023-05-21T16:08:46;94826.25;;;33.53;33.08
23589;BME280;11972;48.078;11.876;2023-05-21T16:12:46;94817.00;;;33.33;31.24
23589;BME280;11972;48.078;11.876;2023-05-21T16:16:47;94823.94;;;32.57;32.13
23589;BME280;11972;48.078;11.876;2023-05-21T16:20:47;94828.69;;;32.15;32.93
23589;BME280;11972;48.078;11.876;2023-05-21T16:24:48;94815.75;;;32.69;33.59
23589;BME280;11972;48.078;11.876;2023-05-21T16:28:48;94823.44;;;32.22;33.49
23589;BME280;11972;48.078;11.876;2023-05-21T16:32:48;94827.94;;;31.93;34.16
23589;BME280;11972;48.078;11.876;2023-05-21T16:36:49;94833.00;;;31.32;33.86
23589;BME280;11972;48.078;11.876;2023-05-21T16:40:50;94832.91;;;30.26;34.50
23589;BME280;11972;48.078;11.876;2023-05-21T16:44:51;94831.47;;;29.94;36.82
23589;BME280;11972;48.078;11.876;2023-05-21T16:48:51;94828.09;;;30.05;37.44
23589;BME280;11972;48.078;11.876;2023-05-21T16:52:51;94829.66;;;30.41;37.75
23589;BME280;11972;48.078;11.876;2023-05-21T16:56:52;94831.47;;;30.20;37.41
23589;BME280;11972;48.078;11.876;2023-05-21T17:00:53;94823.13;;;29.99;38.90
23589;BME280;11972;48.078;11.876;2023-05-21T17:04:53;94825.22;;;29.93;38.89
23589;BME280;11972;48.078;11.876;2023-05-21T17:08:54;94818.50;;;29.64;40.30
23589;BME280;11972;48.078;11.876;2023-05-21T17:12:54;94823.91;;;29.30;41.09
23589;BME280;11972;48.078;11.876;2023-05-21T17:16:54;94818.19;;;29.92;41.52
23589;BME280;11972;48.078;11.876;2023-05-21T17:20:55;94816.69;;;30.85;39.69
23589;BME280;11972;48.078;11.876;2023-05-21T17:24:55;94816.03;;;31.18;37.00
23589;BME280;11972;48.078;11.876;2023-05-21T17:28:55;94817.69;;;31.10;37.15
23589;BME280;11972;48.078;11.876;2023-05-21T17:32:56;94819.31;;;31.11;37.96
23589;BME280;11972;48.078;11.876;2023-05-21T17:36:57;94812.13;;;30.98;38.08
23589;BME280;11972;48.078;11.876;2023-05-21T17:40:58;94829.97;;;30.95;39.16
23589;BME280;11972;48.078;11.876;2023-05-21T17:44:58;94837.06;;;29.97;41.61
23589;BME280;11972;48.078;11.876;2023-05-21T17:48:58;94840.66;;;29.14;47.48
23589;BME280;11972;48.078;11.876;2023-05-21T17:52:59;94845.56;;;27.88;54.08
23589;BME280;11972;48.078;11.876;2023-05-21T17:56:59;94847.53;;;26.96;64.06
23589;BME280;11972;48.078;11.876;2023-05-21T18:00:59;94846.72;;;26.21;73.34
23589;BME280;11972;48.078;11.876;2023-05-21T18:05:00;94847.81;;;25.69;80.77
23589;BME280;11972;48.078;11.876;2023-05-21T18:09:00;94839.94;;;25.35;85.51
23589;BME280;11972;48.078;11.876;2023-05-21T18:13:00;94849.50;;;25.03;90.49
23589;BME280;11972;48.078;11.876;2023-05-21T18:17:01;94842.09;;;24.42;94.34
23589;BME280;11972;48.078;11.876;2023-05-21T18:21:01;94846.06;;;23.86;99.59
23589;BME280;11972;48.078;11.876;2023-05-21T18:25:02;94848.38;;;23.19;100.00
23589;BME280;11972;48.078;11.876;2023-05-21T18:29:03;94854.75;;;22.69;100.00
23589;BME280;11972;48.078;11.876;2023-05-21T18:33:03;94851.88;;;22.29;100.00
23589;BME280;11972;48.078;11.876;2023-05-21T18:37:03;94855.66;;;22.08;100.00
23589;BME280;11972;48.078;11.876;2023-05-21T18:41:04;94857.81;;;21.75;100.00
23589;BME280;11972;48.078;11.876;2023-05-21T18:45:06;94861.00;;;21.47;100.00
23589;BME280;11972;48.078;11.876;2023-05-21T18:49:07;94851.78;;;21.17;100.00
23589;BME280;11972;48.078;11.876;2023-05-21T18:53:07;94861.88;;;20.90;100.00
23589;BME280;11972;48.078;11.876;2023-05-21T18:57:09;94858.00;;;20.65;100.00
23589;BME280;11972;48.078;11.876;2023-05-21T19:01:09;94863.50;;;20.43;100.00
23589;BME280;11972;48.078;11.876;2023-05-21T19:05:10;94866.63;;;20.25;100.00
23589;BME280;11972;48.078;11.876;2023-05-21T19:09:10;94881.25;;;20.07;100.00
23589;BME280;11972;48.078;11.876;2023-05-21T19:13:11;94877.94;;;19.95;100.00
23589;BME280;11972;48.078;11.876;2023-05-21T19:17:11;94881.03;;;19.81;100.00
23589;BME280;11972;48.078;11.876;2023-05-21T19:21:12;94883.88;;;19.70;100.00
23589;BME280;11972;48.078;11.876;2023-05-21T19:25:13;94889.38;;;19.58;100.00
23589;BME280;11972;48.078;11.876;2023-05-21T19:29:13;94889.59;;;19.51;100.00
23589;BME280;11972;48.078;11.876;2023-05-21T19:33:13;94886.44;;;19.32;100.00
23589;BME280;11972;48.078;11.876;2023-05-21T19:37:14;94887.34;;;19.16;100.00
23589;BME280;11972;48.078;11.876;2023-05-21T19:41:15;94895.00;;;19.07;100.00
23589;BME280;11972;48.078;11.876;2023-05-21T19:45:15;94885.00;;;18.98;100.00
23589;BME280;11972;48.078;11.876;2023-05-21T19:49:16;94893.44;;;18.84;100.00
23589;BME280;11972;48.078;11.876;2023-05-21T19:53:18;94900.19;;;18.70;100.00
23589;BME280;11972;48.078;11.876;2023-05-21T19:57:19;94903.25;;;18.62;100.00
23589;BME280;11972;48.078;11.876;2023-05-21T20:01:19;94909.03;;;18.54;100.00
23589;BME280;11972;48.078;11.876;2023-05-21T20:05:20;94910.41;;;18.56;100.00
23589;BME280;11972;48.078;11.876;2023-05-21T20:09:21;94906.28;;;18.49;100.00
23589;BME280;11972;48.078;11.876;2023-05-21T20:13:21;94909.13;;;18.42;100.00
23589;BME280;11972;48.078;11.876;2023-05-21T20:17:21;94913.53;;;18.31;100.00
23589;BME280;11972;48.078;11.876;2023-05-21T20:21:23;94906.47;;;18.25;100.00
23589;BME280;11972;48.078;11.876;2023-05-21T20:25:23;94902.88;;;18.15;100.00
23589;BME280;11972;48.078;11.876;2023-05-21T20:29:24;94908.84;;;18.05;100.00
23589;BME280;11972;48.078;11.876;2023-05-21T20:33:30;94903.34;;;17.95;100.00
23589;BME280;11972;48.078;11.876;2023-05-21T20:37:31;94906.09;;;17.83;100.00
23589;BME280;11972;48.078;11.876;2023-05-21T20:41:31;94903.03;;;17.74;100.00
23589;BME280;11972;48.078;11.876;2023-05-21T20:45:37;94904.66;;;17.64;100.00
23589;BME280;11972;48.078;11.876;2023-05-21T20:49:38;94917.22;;;17.63;100.00
23589;BME280;11972;48.078;11.876;2023-05-21T20:53:38;94911.78;;;17.58;100.00
23589;BME280;11972;48.078;11.876;2023-05-21T20:57:39;94907.78;;;17.44;100.00
23589;BME280;11972;48.078;11.876;2023-05-21T21:01:39;94916.09;;;17.30;100.00
23589;BME280;11972;48.078;11.876;2023-05-21T21:05:39;94912.56;;;17.13;100.00
23589;BME280;11972;48.078;11.876;2023-05-21T21:09:40;94914.59;;;16.94;100.00
23589;BME280;11972;48.078;11.876;2023-05-21T21:13:41;94917.28;;;16.82;100.00
23589;BME280;11972;48.078;11.876;2023-05-21T21:17:41;94915.44;;;16.71;100.00
23589;BME280;11972;48.078;11.876;2023-05-21T21:21:42;94917.06;;;16.60;100.00
23589;BME280;11972;48.078;11.876;2023-05-21T21:25:42;94915.47;;;16.48;100.00